sensor_id;sensor_type;location;lat;lon;timestamp;temperature;humidity
19862;DHT22;10093;48.148;8.542;2022-11-21T00:00:22;2.60;99.90
19862;DHT22;10093;48.148;8.542;2022-11-21T00:02:48;2.70;99.90
19862;DHT22;10093;48.148;8.542;2022-11-21T00:05:13;2.70;99.90
19862;DHT22;10093;48.148;8.542;2022-11-21T00:07:39;2.70;99.90
19862;DHT22;10093;48.148;8.542;2022-11-21T00:10:05;2.90;99.90
19862;DHT22;10093;48.148;8.542;2022-11-21T00:12:31;2.90;99.90
19862;DHT22;10093;48.148;8.542;2022-11-21T00:14:56;3.00;99.90
19862;DHT22;10093;48.148;8.542;2022-11-21T00:17:22;3.00;99.90
19862;DHT22;10093;48.148;8.542;2022-11-21T00:19:48;3.00;99.90
19862;DHT22;10093;48.148;8.542;2022-11-21T00:22:13;3.10;99.90
19862;DHT22;10093;48.148;8.542;2022-11-21T00:24:39;3.10;99.90
19862;DHT22;10093;48.148;8.542;2022-11-21T00:27:04;3.20;99.90
19862;DHT22;10093;48.148;8.542;2022-11-21T00:29:30;3.20;99.90
19862;DHT22;10093;48.148;8.542;2022-11-21T00:31:56;3.20;99.90
19862;DHT22;10093;48.148;8.542;2022-11-21T00:34:22;3.10;99.90
19862;DHT22;10093;48.148;8.542;2022-11-21T00:36:47;3.10;99.90
19862;DHT22;10093;48.148;8.542;2022-11-21T00:39:13;3.00;99.90
19862;DHT22;10093;48.148;8.542;2022-11-21T00:41:38;2.80;99.90
19862;DHT22;10093;48.148;8.542;2022-11-21T00:44:04;2.80;99.90
19862;DHT22;10093;48.148;8.542;2022-11-21T00:46:30;3.00;99.90
19862;DHT22;10093;48.148;8.542;2022-11-21T00:48:56;3.10;99.90
19862;DHT22;10093;48.148;8.542;2022-11-21T00:51:21;3.20;99.90
19862;DHT22;10093;48.148;8.542;2022-11-21T00:53:47;3.20;99.90
19862;DHT22;10093;48.148;8.542;2022-11-21T00:56:12;3.20;99.90
19862;DHT22;10093;48.148;8.542;2022-11-21T00:58:38;3.20;99.90
19862;DHT22;10093;48.148;8.542;2022-11-21T01:01:07;3.30;99.90
19862;DHT22;10093;48.148;8.542;2022-11-21T01:03:33;3.40;99.90
19862;DHT22;10093;48.148;8.542;2022-11-21T01:06:03;3.40;99.90
19862;DHT22;10093;48.148;8.542;2022-11-21T01:08:29;3.40;99.90
19862;DHT22;10093;48.148;8.542;2022-11-21T01:10:55;3.50;99.90
19862;DHT22;10093;48.148;8.542;2022-11-21T01:13:20;3.50;99.90
19862;DHT22;10093;48.148;8.542;2022-11-21T01:15:46;3.40;99.90
19862;DHT22;10093;48.148;8.542;2022-11-21T01:18:11;3.50;99.90
19862;DHT22;10093;48.148;8.542;2022-11-21T01:20:40;3.50;99.90
19862;DHT22;10093;48.148;8.542;2022-11-21T01:23:06;3.60;99.90
19862;DHT22;10093;48.148;8.542;2022-11-21T01:25:35;3.60;99.90
19862;DHT22;10093;48.148;8.542;2022-11-21T01:28:01;3.60;99.90
19862;DHT22;10093;48.148;8.542;2022-11-21T01:30:26;3.60;99.90
19862;DHT22;10093;48.148;8.542;2022-11-21T01:32:52;3.60;99.90
19862;DHT22;10093;48.148;8.542;2022-11-21T01:35:18;3.60;99.90
19862;DHT22;10093;48.148;8.542;2022-11-21T01:37:47;3.60;99.90
19862;DHT22;10093;48.148;8.542;2022-11-21T01:40:13;3.60;99.90
19862;DHT22;10093;48.148;8.542;2022-11-21T01:43:02;3.60;99.90
19862;DHT22;10093;48.148;8.542;2022-11-21T01:48:12;3.50;99.90
19862;DHT22;10093;48.148;8.542;2022-11-21T01:50:38;3.40;99.90
19862;DHT22;10093;48.148;8.542;2022-11-21T01:53:05;3.40;99.90
19862;DHT22;10093;48.148;8.542;2022-11-21T01:55:32;3.30;99.90
19862;DHT22;10093;48.148;8.542;2022-11-21T01:57:57;3.30;99.90
19862;DHT22;10093;48.148;8.542;2022-11-21T02:00:27;3.20;99.90
19862;DHT22;10093;48.148;8.542;2022-11-21T02:02:56;3.20;99.90
19862;DHT22;10093;48.148;8.542;2022-11-21T02:05:29;3.10;99.90
19862;DHT22;10093;48.148;8.542;2022-11-21T02:07:58;3.10;99.90
19862;DHT22;10093;48.148;8.542;2022-11-21T02:10:26;3.10;99.90
19862;DHT22;10093;48.148;8.542;2022-11-21T02:12:54;3.00;99.90
19862;DHT22;10093;48.148;8.542;2022-11-21T02:15:22;3.00;99.90
19862;DHT22;10093;48.148;8.542;2022-11-21T02:17:49;2.90;99.90
19862;DHT22;10093;48.148;8.542;2022-11-21T02:20:22;2.90;99.90
19862;DHT22;10093;48.148;8.542;2022-11-21T02:23:10;2.80;99.90
19862;DHT22;10093;48.148;8.542;2022-11-21T02:25:40;2.70;99.90
19862;DHT22;10093;48.148;8.542;2022-11-21T02:28:18;2.80;99.90
19862;DHT22;10093;48.148;8.542;2022-11-21T02:30:45;2.80;99.90
19862;DHT22;10093;48.148;8.542;2022-11-21T02:33:11;2.80;99.90
19862;DHT22;10093;48.148;8.542;2022-11-21T02:35:38;2.80;99.90
19862;DHT22;10093;48.148;8.542;2022-11-21T02:38:18;2.80;99.90
19862;DHT22;10093;48.148;8.542;2022-11-21T02:40:54;2.70;99.90
19862;DHT22;10093;48.148;8.542;2022-11-21T02:43:25;2.60;99.90
19862;DHT22;10093;48.148;8.542;2022-11-21T02:45:52;2.60;99.90
19862;DHT22;10093;48.148;8.542;2022-11-21T02:48:17;2.60;99.90
19862;DHT22;10093;48.148;8.542;2022-11-21T02:50:45;2.60;99.90
19862;DHT22;10093;48.148;8.542;2022-11-21T02:53:13;2.60;99.90
19862;DHT22;10093;48.148;8.542;2022-11-21T02:55:39;2.60;99.90
19862;DHT22;10093;48.148;8.542;2022-11-21T02:58:05;2.50;99.90
19862;DHT22;10093;48.148;8.542;2022-11-21T03:00:33;2.60;99.90
19862;DHT22;10093;48.148;8.542;2022-11-21T03:02:59;2.50;99.90
19862;DHT22;10093;48.148;8.542;2022-11-21T03:05:25;2.50;99.90
19862;DHT22;10093;48.148;8.542;2022-11-21T03:07:51;2.50;99.90
19862;DHT22;10093;48.148;8.542;2022-11-21T03:10:17;2.50;99.90
19862;DHT22;10093;48.148;8.542;2022-11-21T03:12:42;2.50;99.90
19862;DHT22;10093;48.148;8.542;2022-11-21T03:15:11;2.60;99.90
19862;DHT22;10093;48.148;8.542;2022-11-21T03:17:37;2.60;99.90
19862;DHT22;10093;48.148;8.542;2022-11-21T03:20:03;2.80;99.90
19862;DHT22;10093;48.148;8.542;2022-11-21T03:22:29;2.70;99.90
19862;DHT22;10093;48.148;8.542;2022-11-21T03:24:55;2.60;99.90
19862;DHT22;10093;48.148;8.542;2022-11-21T03:27:20;2.60;99.90
19862;DHT22;10093;48.148;8.542;2022-11-21T03:29:46;2.60;99.90
19862;DHT22;10093;48.148;8.542;2022-11-21T03:32:11;2.50;99.90
19862;DHT22;10093;48.148;8.542;2022-11-21T03:34:37;2.50;99.90
19862;DHT22;10093;48.148;8.542;2022-11-21T03:37:03;2.60;99.90
19862;DHT22;10093;48.148;8.542;2022-11-21T03:39:29;2.60;99.90
19862;DHT22;10093;48.148;8.542;2022-11-21T03:41:55;2.60;99.90
19862;DHT22;10093;48.148;8.542;2022-11-21T03:44:21;2.60;99.90
19862;DHT22;10093;48.148;8.542;2022-11-21T03:46:46;2.70;99.90
19862;DHT22;10093;48.148;8.542;2022-11-21T03:49:13;2.70;99.90
19862;DHT22;10093;48.148;8.542;2022-11-21T03:51:40;2.70;99.90
19862;DHT22;10093;48.148;8.542;2022-11-21T03:54:06;2.80;99.90
19862;DHT22;10093;48.148;8.542;2022-11-21T03:56:32;2.70;99.90
19862;DHT22;10093;48.148;8.542;2022-11-21T03:58:58;2.70;99.90
19862;DHT22;10093;48.148;8.542;2022-11-21T04:01:24;2.70;99.90
19862;DHT22;10093;48.148;8.542;2022-11-21T04:03:50;2.60;99.90
19862;DHT22;10093;48.148;8.542;2022-11-21T04:06:18;2.70;99.90
19862;DHT22;10093;48.148;8.542;2022-11-21T04:08:43;2.60;99.90
19862;DHT22;10093;48.148;8.542;2022-11-21T04:11:09;2.70;99.90
19862;DHT22;10093;48.148;8.542;2022-11-21T04:13:35;2.60;99.90
19862;DHT22;10093;48.148;8.542;2022-11-21T04:16:01;2.60;99.90
19862;DHT22;10093;48.148;8.542;2022-11-21T04:18:26;2.80;99.90
19862;DHT22;10093;48.148;8.542;2022-11-21T04:20:56;2.90;99.90
19862;DHT22;10093;48.148;8.542;2022-11-21T04:23:22;2.90;99.90
19862;DHT22;10093;48.148;8.542;2022-11-21T04:25:48;2.90;99.90
19862;DHT22;10093;48.148;8.542;2022-11-21T04:28:13;2.90;99.90
19862;DHT22;10093;48.148;8.542;2022-11-21T04:30:39;2.70;99.90
19862;DHT22;10093;48.148;8.542;2022-11-21T04:33:05;2.60;99.90
19862;DHT22;10093;48.148;8.542;2022-11-21T04:35:31;2.40;99.90
19862;DHT22;10093;48.148;8.542;2022-11-21T04:37:56;2.30;99.90
19862;DHT22;10093;48.148;8.542;2022-11-21T04:40:22;2.20;99.90
19862;DHT22;10093;48.148;8.542;2022-11-21T04:42:48;2.20;99.90
19862;DHT22;10093;48.148;8.542;2022-11-21T04:45:15;2.10;99.90
19862;DHT22;10093;48.148;8.542;2022-11-21T04:47:43;2.10;99.90
19862;DHT22;10093;48.148;8.542;2022-11-21T04:50:11;2.10;99.90
19862;DHT22;10093;48.148;8.542;2022-11-21T04:52:37;2.20;99.90
19862;DHT22;10093;48.148;8.542;2022-11-21T04:55:03;2.30;99.90
19862;DHT22;10093;48.148;8.542;2022-11-21T04:57:30;2.40;99.90
19862;DHT22;10093;48.148;8.542;2022-11-21T04:59:56;2.40;99.90
19862;DHT22;10093;48.148;8.542;2022-11-21T05:02:21;2.60;99.90
19862;DHT22;10093;48.148;8.542;2022-11-21T05:04:47;2.60;99.90
19862;DHT22;10093;48.148;8.542;2022-11-21T05:07:13;2.60;99.90
19862;DHT22;10093;48.148;8.542;2022-11-21T05:09:39;2.70;99.90
19862;DHT22;10093;48.148;8.542;2022-11-21T05:12:05;2.70;99.90
19862;DHT22;10093;48.148;8.542;2022-11-21T05:14:50;2.60;99.90
19862;DHT22;10093;48.148;8.542;2022-11-21T05:17:15;2.60;99.90
19862;DHT22;10093;48.148;8.542;2022-11-21T05:19:41;2.60;99.90
19862;DHT22;10093;48.148;8.542;2022-11-21T05:22:07;2.60;99.90
19862;DHT22;10093;48.148;8.542;2022-11-21T05:24:32;2.60;99.90
19862;DHT22;10093;48.148;8.542;2022-11-21T05:26:58;2.50;99.90
19862;DHT22;10093;48.148;8.542;2022-11-21T05:29:24;2.50;99.90
19862;DHT22;10093;48.148;8.542;2022-11-21T05:31:49;2.60;99.90
19862;DHT22;10093;48.148;8.542;2022-11-21T05:34:15;2.90;99.90
19862;DHT22;10093;48.148;8.542;2022-11-21T05:36:40;3.00;99.90
19862;DHT22;10093;48.148;8.542;2022-11-21T05:39:06;3.00;99.90
19862;DHT22;10093;48.148;8.542;2022-11-21T05:41:32;2.90;99.90
19862;DHT22;10093;48.148;8.542;2022-11-21T05:43:57;3.00;99.90
19862;DHT22;10093;48.148;8.542;2022-11-21T05:46:24;2.90;99.90
19862;DHT22;10093;48.148;8.542;2022-11-21T05:48:51;2.80;99.90
19862;DHT22;10093;48.148;8.542;2022-11-21T05:51:18;2.80;99.90
19862;DHT22;10093;48.148;8.542;2022-11-21T05:53:44;2.70;99.90
19862;DHT22;10093;48.148;8.542;2022-11-21T05:56:16;2.60;99.90
19862;DHT22;10093;48.148;8.542;2022-11-21T05:58:41;2.50;99.90
19862;DHT22;10093;48.148;8.542;2022-11-21T06:01:09;2.40;99.90
19862;DHT22;10093;48.148;8.542;2022-11-21T06:03:37;2.20;99.90
19862;DHT22;10093;48.148;8.542;2022-11-21T06:06:13;2.10;99.90
19862;DHT22;10093;48.148;8.542;2022-11-21T06:08:41;2.10;99.90
19862;DHT22;10093;48.148;8.542;2022-11-21T06:11:09;2.10;99.90
19862;DHT22;10093;48.148;8.542;2022-11-21T06:13:35;2.20;99.90
19862;DHT22;10093;48.148;8.542;2022-11-21T06:16:12;2.20;99.90
19862;DHT22;10093;48.148;8.542;2022-11-21T06:18:43;2.10;99.90
19862;DHT22;10093;48.148;8.542;2022-11-21T06:21:13;2.10;99.90
19862;DHT22;10093;48.148;8.542;2022-11-21T06:23:39;2.10;99.90
19862;DHT22;10093;48.148;8.542;2022-11-21T06:26:07;2.00;99.90
19862;DHT22;10093;48.148;8.542;2022-11-21T06:28:35;1.90;99.90
19862;DHT22;10093;48.148;8.542;2022-11-21T06:31:23;1.80;99.90
19862;DHT22;10093;48.148;8.542;2022-11-21T06:33:54;1.70;99.90
19862;DHT22;10093;48.148;8.542;2022-11-21T06:36:20;1.80;99.90
19862;DHT22;10093;48.148;8.542;2022-11-21T06:38:46;1.80;99.90
19862;DHT22;10093;48.148;8.542;2022-11-21T06:41:19;1.80;99.90
19862;DHT22;10093;48.148;8.542;2022-11-21T06:43:45;1.90;99.90
19862;DHT22;10093;48.148;8.542;2022-11-21T06:46:12;1.90;99.90
19862;DHT22;10093;48.148;8.542;2022-11-21T06:48:38;1.90;99.90
19862;DHT22;10093;48.148;8.542;2022-11-21T06:51:06;1.90;99.90
19862;DHT22;10093;48.148;8.542;2022-11-21T06:53:33;1.80;99.90
19862;DHT22;10093;48.148;8.542;2022-11-21T06:56:02;1.80;99.90
19862;DHT22;10093;48.148;8.542;2022-11-21T06:58:28;1.80;99.90
19862;DHT22;10093;48.148;8.542;2022-11-21T07:00:54;1.90;99.90
19862;DHT22;10093;48.148;8.542;2022-11-21T07:03:20;1.90;99.90
19862;DHT22;10093;48.148;8.542;2022-11-21T07:05:46;1.90;99.90
19862;DHT22;10093;48.148;8.542;2022-11-21T07:08:12;1.90;99.90
19862;DHT22;10093;48.148;8.542;2022-11-21T07:10:38;1.90;99.90
19862;DHT22;10093;48.148;8.542;2022-11-21T07:13:03;1.80;99.90
19862;DHT22;10093;48.148;8.542;2022-11-21T07:15:52;1.80;99.90
19862;DHT22;10093;48.148;8.542;2022-11-21T07:18:19;1.80;99.90
19862;DHT22;10093;48.148;8.542;2022-11-21T07:20:45;1.80;99.90
19862;DHT22;10093;48.148;8.542;2022-11-21T07:23:11;1.90;99.90
19862;DHT22;10093;48.148;8.542;2022-11-21T07:25:37;1.90;99.90
19862;DHT22;10093;48.148;8.542;2022-11-21T07:28:07;1.90;99.90
19862;DHT22;10093;48.148;8.542;2022-11-21T07:30:34;1.90;99.90
19862;DHT22;10093;48.148;8.542;2022-11-21T07:33:02;1.90;99.90
19862;DHT22;10093;48.148;8.542;2022-11-21T07:35:28;1.90;99.90
19862;DHT22;10093;48.148;8.542;2022-11-21T07:37:53;2.00;99.90
19862;DHT22;10093;48.148;8.542;2022-11-21T07:40:20;2.10;99.90
19862;DHT22;10093;48.148;8.542;2022-11-21T07:42:46;2.50;99.90
19862;DHT22;10093;48.148;8.542;2022-11-21T07:45:13;2.40;99.90
19862;DHT22;10093;48.148;8.542;2022-11-21T07:47:38;2.80;99.90
19862;DHT22;10093;48.148;8.542;2022-11-21T07:50:05;4.50;99.90
19862;DHT22;10093;48.148;8.542;2022-11-21T07:52:31;6.00;99.90
19862;DHT22;10093;48.148;8.542;2022-11-21T07:54:57;6.00;99.90
19862;DHT22;10093;48.148;8.542;2022-11-21T07:57:23;4.80;99.90
19862;DHT22;10093;48.148;8.542;2022-11-21T07:59:49;4.60;99.90
19862;DHT22;10093;48.148;8.542;2022-11-21T08:02:22;5.70;99.90
19862;DHT22;10093;48.148;8.542;2022-11-21T08:04:48;7.50;99.90
19862;DHT22;10093;48.148;8.542;2022-11-21T08:07:14;8.50;99.90
19862;DHT22;10093;48.148;8.542;2022-11-21T08:09:40;9.40;99.90
19862;DHT22;10093;48.148;8.542;2022-11-21T08:12:06;11.20;99.90
19862;DHT22;10093;48.148;8.542;2022-11-21T08:14:33;10.40;99.90
19862;DHT22;10093;48.148;8.542;2022-11-21T08:16:58;10.10;99.90
19862;DHT22;10093;48.148;8.542;2022-11-21T08:19:24;11.50;99.90
19862;DHT22;10093;48.148;8.542;2022-11-21T08:21:50;12.10;99.90
19862;DHT22;10093;48.148;8.542;2022-11-21T08:24:15;11.90;99.90
19862;DHT22;10093;48.148;8.542;2022-11-21T08:26:42;12.30;99.90
19862;DHT22;10093;48.148;8.542;2022-11-21T08:29:09;12.30;99.90
19862;DHT22;10093;48.148;8.542;2022-11-21T08:31:36;12.00;99.90
19862;DHT22;10093;48.148;8.542;2022-11-21T08:34:02;11.70;99.90
19862;DHT22;10093;48.148;8.542;2022-11-21T08:36:28;11.70;99.90
19862;DHT22;10093;48.148;8.542;2022-11-21T08:38:53;11.20;99.90
19862;DHT22;10093;48.148;8.542;2022-11-21T08:41:19;10.40;99.90
19862;DHT22;10093;48.148;8.542;2022-11-21T08:44:04;9.60;99.90
19862;DHT22;10093;48.148;8.542;2022-11-21T08:46:30;9.00;99.90
19862;DHT22;10093;48.148;8.542;2022-11-21T08:48:58;8.20;99.90
19862;DHT22;10093;48.148;8.542;2022-11-21T08:51:24;7.70;99.90
19862;DHT22;10093;48.148;8.542;2022-11-21T08:53:49;7.30;99.90
19862;DHT22;10093;48.148;8.542;2022-11-21T08:56:15;7.00;99.90
19862;DHT22;10093;48.148;8.542;2022-11-21T08:58:41;7.10;99.90
19862;DHT22;10093;48.148;8.542;2022-11-21T09:01:06;6.90;99.90
19862;DHT22;10093;48.148;8.542;2022-11-21T09:03:32;6.90;99.90
19862;DHT22;10093;48.148;8.542;2022-11-21T09:05:59;6.80;99.90
19862;DHT22;10093;48.148;8.542;2022-11-21T09:08:25;6.00;99.90
19862;DHT22;10093;48.148;8.542;2022-11-21T09:10:51;5.00;99.90
19862;DHT22;10093;48.148;8.542;2022-11-21T09:13:16;5.00;99.90
19862;DHT22;10093;48.148;8.542;2022-11-21T09:15:42;5.00;99.90
19862;DHT22;10093;48.148;8.542;2022-11-21T09:18:26;5.10;99.90
19862;DHT22;10093;48.148;8.542;2022-11-21T09:20:51;5.20;99.90
19862;DHT22;10093;48.148;8.542;2022-11-21T09:23:17;5.60;99.90
19862;DHT22;10093;48.148;8.542;2022-11-21T09:25:44;5.80;99.90
19862;DHT22;10093;48.148;8.542;2022-11-21T09:28:11;5.70;99.90
19862;DHT22;10093;48.148;8.542;2022-11-21T09:30:38;6.10;99.90
19862;DHT22;10093;48.148;8.542;2022-11-21T09:33:06;6.10;99.90
19862;DHT22;10093;48.148;8.542;2022-11-21T09:35:32;6.90;99.90
19862;DHT22;10093;48.148;8.542;2022-11-21T09:37:58;6.80;99.90
19862;DHT22;10093;48.148;8.542;2022-11-21T09:40:24;7.00;99.90
19862;DHT22;10093;48.148;8.542;2022-11-21T09:47:52;7.50;99.90
19862;DHT22;10093;48.148;8.542;2022-11-21T09:50:33;7.30;99.90
19862;DHT22;10093;48.148;8.542;2022-11-21T09:58:08;6.60;99.90
19862;DHT22;10093;48.148;8.542;2022-11-21T10:00:39;6.70;99.90
19862;DHT22;10093;48.148;8.542;2022-11-21T10:03:04;7.00;99.90
19862;DHT22;10093;48.148;8.542;2022-11-21T10:20:16;7.50;99.90
19862;DHT22;10093;48.148;8.542;2022-11-21T10:29:38;7.90;99.90
19862;DHT22;10093;48.148;8.542;2022-11-21T10:31:35;8.00;99.90
19862;DHT22;10093;48.148;8.542;2022-11-21T10:34:08;7.80;99.90
19862;DHT22;10093;48.148;8.542;2022-11-21T10:36:36;7.60;99.90
19862;DHT22;10093;48.148;8.542;2022-11-21T10:39:47;7.30;99.90
19862;DHT22;10093;48.148;8.542;2022-11-21T10:42:17;7.10;99.90
19862;DHT22;10093;48.148;8.542;2022-11-21T10:44:49;6.80;99.90
19862;DHT22;10093;48.148;8.542;2022-11-21T10:47:34;6.70;99.90
19862;DHT22;10093;48.148;8.542;2022-11-21T10:52:49;7.60;99.90
19862;DHT22;10093;48.148;8.542;2022-11-21T10:55:16;7.70;99.90
19862;DHT22;10093;48.148;8.542;2022-11-21T10:57:47;8.50;99.90
19862;DHT22;10093;48.148;8.542;2022-11-21T11:02:40;8.40;99.90
19862;DHT22;10093;48.148;8.542;2022-11-21T11:07:41;8.40;99.90
19862;DHT22;10093;48.148;8.542;2022-11-21T11:10:21;8.20;99.90
19862;DHT22;10093;48.148;8.542;2022-11-21T11:12:48;7.70;99.90
19862;DHT22;10093;48.148;8.542;2022-11-21T11:15:33;7.60;99.90
19862;DHT22;10093;48.148;8.542;2022-11-21T11:18:01;7.50;99.90
19862;DHT22;10093;48.148;8.542;2022-11-21T11:20:37;7.70;99.90
19862;DHT22;10093;48.148;8.542;2022-11-21T11:23:22;7.60;99.90
19862;DHT22;10093;48.148;8.542;2022-11-21T11:25:58;7.40;99.90
19862;DHT22;10093;48.148;8.542;2022-11-21T11:28:34;7.50;99.90
19862;DHT22;10093;48.148;8.542;2022-11-21T11:31:00;7.80;99.90
19862;DHT22;10093;48.148;8.542;2022-11-21T11:33:38;8.30;99.90
19862;DHT22;10093;48.148;8.542;2022-11-21T11:36:14;9.20;99.90
19862;DHT22;10093;48.148;8.542;2022-11-21T11:38:51;9.20;99.90
19862;DHT22;10093;48.148;8.542;2022-11-21T11:47:28;9.10;99.90
19862;DHT22;10093;48.148;8.542;2022-11-21T11:50:04;10.90;99.90
19862;DHT22;10093;48.148;8.542;2022-11-21T11:57:53;12.70;99.90
19862;DHT22;10093;48.148;8.542;2022-11-21T12:00:45;12.40;99.90
19862;DHT22;10093;48.148;8.542;2022-11-21T12:03:18;11.90;99.90
19862;DHT22;10093;48.148;8.542;2022-11-21T12:06:25;12.10;99.90
19862;DHT22;10093;48.148;8.542;2022-11-21T12:12:01;10.90;99.90
19862;DHT22;10093;48.148;8.542;2022-11-21T12:17:39;10.80;99.90
19862;DHT22;10093;48.148;8.542;2022-11-21T12:20:33;11.20;99.90
19862;DHT22;10093;48.148;8.542;2022-11-21T12:23:00;10.70;99.90
19862;DHT22;10093;48.148;8.542;2022-11-21T12:25:34;11.70;99.90
19862;DHT22;10093;48.148;8.542;2022-11-21T12:28:04;12.20;99.90
19862;DHT22;10093;48.148;8.542;2022-11-21T12:30:52;12.50;99.90
19862;DHT22;10093;48.148;8.542;2022-11-21T12:33:21;12.80;99.90
19862;DHT22;10093;48.148;8.542;2022-11-21T12:50:01;10.80;99.90
19862;DHT22;10093;48.148;8.542;2022-11-21T12:52:52;9.90;99.90
19862;DHT22;10093;48.148;8.542;2022-11-21T12:55:40;9.60;99.90
19862;DHT22;10093;48.148;8.542;2022-11-21T12:58:35;9.50;99.90
19862;DHT22;10093;48.148;8.542;2022-11-21T13:03:59;9.50;99.90
19862;DHT22;10093;48.148;8.542;2022-11-21T13:06:28;9.10;99.90
19862;DHT22;10093;48.148;8.542;2022-11-21T13:08:58;8.80;99.90
19862;DHT22;10093;48.148;8.542;2022-11-21T13:14:28;8.90;99.90
19862;DHT22;10093;48.148;8.542;2022-11-21T13:19:54;9.20;99.90
19862;DHT22;10093;48.148;8.542;2022-11-21T13:27:41;9.00;99.90
19862;DHT22;10093;48.148;8.542;2022-11-21T13:32:44;8.50;99.90
19862;DHT22;10093;48.148;8.542;2022-11-21T14:03:14;6.90;99.90
19862;DHT22;10093;48.148;8.542;2022-11-21T14:07:45;6.90;99.90
19862;DHT22;10093;48.148;8.542;2022-11-21T14:12:49;6.90;99.90
19862;DHT22;10093;48.148;8.542;2022-11-21T14:17:56;7.00;99.90
19862;DHT22;10093;48.148;8.542;2022-11-21T14:20:48;7.20;99.90
19862;DHT22;10093;48.148;8.542;2022-11-21T14:23:17;7.00;99.90
19862;DHT22;10093;48.148;8.542;2022-11-21T14:25:53;7.00;99.90
19862;DHT22;10093;48.148;8.542;2022-11-21T14:28:28;7.20;99.90
19862;DHT22;10093;48.148;8.542;2022-11-21T14:30:56;7.00;99.90
19862;DHT22;10093;48.148;8.542;2022-11-21T14:35:56;6.50;99.90
19862;DHT22;10093;48.148;8.542;2022-11-21T14:38:23;6.40;99.90
19862;DHT22;10093;48.148;8.542;2022-11-21T14:40:49;6.40;99.90
19862;DHT22;10093;48.148;8.542;2022-11-21T14:43:30;6.20;99.90
19862;DHT22;10093;48.148;8.542;2022-11-21T14:45:56;6.10;99.90
19862;DHT22;10093;48.148;8.542;2022-11-21T14:48:29;6.00;99.90
19862;DHT22;10093;48.148;8.542;2022-11-21T14:50:56;6.10;99.90
19862;DHT22;10093;48.148;8.542;2022-11-21T14:53:24;5.90;99.90
19862;DHT22;10093;48.148;8.542;2022-11-21T14:55:50;5.80;99.90
19862;DHT22;10093;48.148;8.542;2022-11-21T14:58:17;5.70;99.90
19862;DHT22;10093;48.148;8.542;2022-11-21T15:01:12;5.60;99.90
19862;DHT22;10093;48.148;8.542;2022-11-21T15:03:59;5.50;99.90
19862;DHT22;10093;48.148;8.542;2022-11-21T15:06:28;5.40;99.90
19862;DHT22;10093;48.148;8.542;2022-11-21T15:08:58;5.30;99.90
19862;DHT22;10093;48.148;8.542;2022-11-21T15:11:35;5.20;99.90
19862;DHT22;10093;48.148;8.542;2022-11-21T15:14:09;5.20;99.90
19862;DHT22;10093;48.148;8.542;2022-11-21T15:16:37;5.00;99.90
19862;DHT22;10093;48.148;8.542;2022-11-21T15:19:09;4.90;99.90
19862;DHT22;10093;48.148;8.542;2022-11-21T15:21:35;4.80;99.90
19862;DHT22;10093;48.148;8.542;2022-11-21T15:24:42;4.70;99.90
19862;DHT22;10093;48.148;8.542;2022-11-21T15:32:33;4.50;99.90
19862;DHT22;10093;48.148;8.542;2022-11-21T15:34:59;4.70;99.90
19862;DHT22;10093;48.148;8.542;2022-11-21T15:37:24;4.40;99.90
19862;DHT22;10093;48.148;8.542;2022-11-21T15:39:52;4.30;99.90
19862;DHT22;10093;48.148;8.542;2022-11-21T15:45:26;4.10;99.90
19862;DHT22;10093;48.148;8.542;2022-11-21T15:47:51;4.20;99.90
19862;DHT22;10093;48.148;8.542;2022-11-21T15:50:17;4.10;99.90
19862;DHT22;10093;48.148;8.542;2022-11-21T15:52:48;3.90;99.90
19862;DHT22;10093;48.148;8.542;2022-11-21T15:55:25;3.80;99.90
19862;DHT22;10093;48.148;8.542;2022-11-21T15:57:51;3.80;99.90
19862;DHT22;10093;48.148;8.542;2022-11-21T16:00:17;4.00;99.90
19862;DHT22;10093;48.148;8.542;2022-11-21T16:02:43;3.80;99.90
19862;DHT22;10093;48.148;8.542;2022-11-21T16:05:12;4.00;99.90
19862;DHT22;10093;48.148;8.542;2022-11-21T16:07:39;4.20;99.90
19862;DHT22;10093;48.148;8.542;2022-11-21T16:10:05;4.20;99.90
19862;DHT22;10093;48.148;8.542;2022-11-21T16:12:31;4.00;99.90
19862;DHT22;10093;48.148;8.542;2022-11-21T16:14:56;3.90;99.90
19862;DHT22;10093;48.148;8.542;2022-11-21T16:17:22;4.00;99.90
19862;DHT22;10093;48.148;8.542;2022-11-21T16:19:47;4.20;99.90
19862;DHT22;10093;48.148;8.542;2022-11-21T16:22:13;4.20;99.90
19862;DHT22;10093;48.148;8.542;2022-11-21T16:24:41;4.20;99.90
19862;DHT22;10093;48.148;8.542;2022-11-21T16:27:06;4.10;99.90
19862;DHT22;10093;48.148;8.542;2022-11-21T16:29:32;4.00;99.90
19862;DHT22;10093;48.148;8.542;2022-11-21T16:31:57;3.90;99.90
19862;DHT22;10093;48.148;8.542;2022-11-21T16:34:25;3.80;99.90
19862;DHT22;10093;48.148;8.542;2022-11-21T16:36:51;3.80;99.90
19862;DHT22;10093;48.148;8.542;2022-11-21T16:39:16;3.70;99.90
19862;DHT22;10093;48.148;8.542;2022-11-21T16:41:42;3.60;99.90
19862;DHT22;10093;48.148;8.542;2022-11-21T16:44:13;3.60;99.90
19862;DHT22;10093;48.148;8.542;2022-11-21T16:46:43;3.60;99.90
19862;DHT22;10093;48.148;8.542;2022-11-21T16:49:09;3.80;99.90
19862;DHT22;10093;48.148;8.542;2022-11-21T16:51:35;3.70;99.90
19862;DHT22;10093;48.148;8.542;2022-11-21T16:54:00;3.70;99.90
19862;DHT22;10093;48.148;8.542;2022-11-21T16:56:26;3.40;99.90
19862;DHT22;10093;48.148;8.542;2022-11-21T16:58:52;3.40;99.90
19862;DHT22;10093;48.148;8.542;2022-11-21T17:01:20;3.60;99.90
19862;DHT22;10093;48.148;8.542;2022-11-21T17:03:47;3.60;99.90
19862;DHT22;10093;48.148;8.542;2022-11-21T17:06:15;3.50;99.90
19862;DHT22;10093;48.148;8.542;2022-11-21T17:08:41;3.60;99.90
19862;DHT22;10093;48.148;8.542;2022-11-21T17:11:17;3.70;99.90
19862;DHT22;10093;48.148;8.542;2022-11-21T17:13:44;3.80;99.90
19862;DHT22;10093;48.148;8.542;2022-11-21T17:16:11;3.90;99.90
19862;DHT22;10093;48.148;8.542;2022-11-21T17:18:37;3.80;99.90
19862;DHT22;10093;48.148;8.542;2022-11-21T17:21:08;3.80;99.90
19862;DHT22;10093;48.148;8.542;2022-11-21T17:23:35;3.70;99.90
19862;DHT22;10093;48.148;8.542;2022-11-21T17:26:05;3.70;99.90
19862;DHT22;10093;48.148;8.542;2022-11-21T17:28:32;3.70;99.90
19862;DHT22;10093;48.148;8.542;2022-11-21T17:30:58;3.90;99.90
19862;DHT22;10093;48.148;8.542;2022-11-21T17:33:25;4.00;99.90
19862;DHT22;10093;48.148;8.542;2022-11-21T17:35:51;4.10;99.90
19862;DHT22;10093;48.148;8.542;2022-11-21T17:38:17;4.10;99.90
19862;DHT22;10093;48.148;8.542;2022-11-21T17:40:42;3.90;99.90
19862;DHT22;10093;48.148;8.542;2022-11-21T17:43:08;4.00;99.90
19862;DHT22;10093;48.148;8.542;2022-11-21T17:45:34;4.10;99.90
19862;DHT22;10093;48.148;8.542;2022-11-21T17:48:00;4.10;99.90
19862;DHT22;10093;48.148;8.542;2022-11-21T17:50:25;4.10;99.90
19862;DHT22;10093;48.148;8.542;2022-11-21T17:52:51;4.10;99.90
19862;DHT22;10093;48.148;8.542;2022-11-21T17:55:17;4.00;99.90
19862;DHT22;10093;48.148;8.542;2022-11-21T17:57:43;3.90;99.90
19862;DHT22;10093;48.148;8.542;2022-11-21T18:00:09;3.80;99.90
19862;DHT22;10093;48.148;8.542;2022-11-21T18:02:35;3.60;99.90
19862;DHT22;10093;48.148;8.542;2022-11-21T18:05:00;3.60;99.90
19862;DHT22;10093;48.148;8.542;2022-11-21T18:07:26;3.50;99.90
19862;DHT22;10093;48.148;8.542;2022-11-21T18:09:54;3.60;99.90